Página principal
METAR-TAF:

METAR-TAF

Aeroportos :

Aeroporto de Gran Canária

Gran Canária, Espanha

latitude: 27-56N, longitude: 015-23W, altura: 23 m

Observação actual do tempo

O boletim foi feito há 18 minutos, às 09:00 UTC
Vento 18 kt de norte, variando entre norte e nordeste
Temperatura 21°C
Humidade 43%
Pressão 1020 hPa
Visibilidade 10 km ou mais
Poucas nuvensa uma altura de 3500 ft

METAR: GCLP 270900Z 01018KT 350V050 9999 FEW035 21/08 Q1020 NOSIG

Hora: 10:18 (09:18 UTC)

Previsão

O boletim foi feito há 1 hora e 18 minutos, às 08:00 UTC
Previsão válida de 27 às 09 UTC a 28 às 09 UTC
Vento 18 kt de norte
Visibilidade 10 km ou mais
Poucas nuvensa uma altura de 3000 ft

TAF: GCLP 270800Z 2709/2809 36018KT 9999 FEW030 TX24/2714Z TN17/2805Z

Observações e previsões do tempo de mais de 4000 aeroportos (mensagens METAR e TAF).

As estações disponíveis são os pontos amarelos e vermelhos sobre o mapa.

Mova o rato sobre o mapa para ver o nome da estação.

Depois clique no ponto para visualizar as observações e previsões meteorológicas.

Para alterar o mapa : clique nos botões verdes com uma cruz preta para aumentar o zoom; no botão verde com uma pitada de zoom; ou nas setas verdes para mapas adjacentes.


METAR-TAF: